createdAt,value
2019-02-07T00:04:19.774Z,10.43
2019-02-07T00:07:23.175Z,11.77
2019-02-07T00:10:26.961Z,10.70
2019-02-07T00:13:32.327Z,9.47
2019-02-07T00:16:35.798Z,10.23
2019-02-07T00:19:39.440Z,9.93
2019-02-07T00:22:44.705Z,9.77
2019-02-07T00:25:48.365Z,10.23
2019-02-07T00:28:51.764Z,9.60
2019-02-07T00:31:56.891Z,10.17
2019-02-07T00:35:00.351Z,10.47
2019-02-07T00:38:03.758Z,10.60
2019-02-07T00:41:26.495Z,10.20
2019-02-07T00:44:30.268Z,10.40
2019-02-07T00:47:33.910Z,12.10
2019-02-07T00:50:37.326Z,11.87
2019-02-07T00:53:42.449Z,11.93
2019-02-07T00:56:46.081Z,12.50
2019-02-07T00:59:49.800Z,11.70
2019-02-07T01:02:54.055Z,12.00
2019-02-07T01:05:57.763Z,12.17
2019-02-07T01:09:01.155Z,12.10
2019-02-07T01:12:44.640Z,11.73
2019-02-07T01:15:48.278Z,11.83
2019-02-07T01:18:53.642Z,12.33
2019-02-07T01:21:57.114Z,11.50
2019-02-07T01:25:00.519Z,11.83
2019-02-07T01:28:05.633Z,11.93
2019-02-07T01:31:09.036Z,11.13
2019-02-07T01:34:12.737Z,10.53
2019-02-07T01:37:17.853Z,11.03
2019-02-07T01:41:01.153Z,9.97
2019-02-07T01:44:24.506Z,10.47
2019-02-07T01:47:27.974Z,11.50
2019-02-07T01:50:31.450Z,11.30
2019-02-07T01:53:34.907Z,10.03
2019-02-07T01:56:38.316Z,11.57
2019-02-07T01:59:41.731Z,11.37
2019-02-07T02:02:45.175Z,11.77
2019-02-07T02:05:48.586Z,10.83
2019-02-07T02:08:52.042Z,10.93
2019-02-07T02:11:55.452Z,11.60
2019-02-07T02:14:58.863Z,10.87
2019-02-07T02:18:02.250Z,10.33
2019-02-07T02:21:06.113Z,10.63
2019-02-07T02:24:09.952Z,10.70
2019-02-07T02:27:13.423Z,9.80
2019-02-07T02:30:56.727Z,10.23
2019-02-07T02:34:00.476Z,9.43
2019-02-07T02:37:06.017Z,10.57
2019-02-07T02:40:49.328Z,10.23
2019-02-07T02:43:52.713Z,9.60
2019-02-07T02:46:56.456Z,10.00
2019-02-07T02:49:59.870Z,10.07
2019-02-07T02:53:03.564Z,8.53
2019-02-07T02:56:06.965Z,10.83
2019-02-07T02:59:10.427Z,9.83
2019-02-07T03:02:33.082Z,9.80
2019-02-07T03:05:55.666Z,9.80
2019-02-07T03:09:37.530Z,9.87
2019-02-07T03:13:00.574Z,9.47
2019-02-07T03:16:23.593Z,9.83
2019-02-07T03:19:46.111Z,10.40
2019-02-07T03:23:08.632Z,9.57
2019-02-07T03:26:31.478Z,9.47
2019-02-07T03:29:53.998Z,10.00
2019-02-07T03:33:16.753Z,9.37
2019-02-07T03:39:49.741Z,9.70
2019-02-07T03:43:12.694Z,10.60
2019-02-07T03:46:17.723Z,9.87
2019-02-07T03:56:15.223Z,9.97
2019-02-07T03:59:37.753Z,9.80
2019-02-07T04:03:00.279Z,10.70
2019-02-07T04:16:15.073Z,10.00
2019-02-07T04:19:32.556Z,9.87
2019-02-07T04:26:05.179Z,9.43
2019-02-07T04:29:27.969Z,9.90
2019-02-07T04:32:50.747Z,10.37
2019-02-07T04:42:51.866Z,9.17
2019-02-07T04:46:26.414Z,9.70
2019-02-07T04:49:38.858Z,10.17
2019-02-07T04:53:01.369Z,9.93
2019-02-07T04:56:24.121Z,9.93
2019-02-07T05:09:17.874Z,9.37
2019-02-07T05:12:40.415Z,9.27
2019-02-07T05:16:03.183Z,9.37
2019-02-07T05:19:25.710Z,9.30
2019-02-07T05:22:39.901Z,9.67
2019-02-07T05:25:44.941Z,9.80
2019-02-07T05:29:04.933Z,9.87
2019-02-07T05:32:12.760Z,8.70
2019-02-07T05:35:21.115Z,10.03
2019-02-07T05:38:41.442Z,9.50
2019-02-07T05:42:01.678Z,9.77
2019-02-07T05:45:24.572Z,10.70
2019-02-07T05:48:46.059Z,9.83
2019-02-07T05:52:07.572Z,10.00
2019-02-07T05:55:21.630Z,9.90
2019-02-07T05:58:29.775Z,10.23
2019-02-07T06:01:37.657Z,10.53
2019-02-07T06:04:48.456Z,9.90
2019-02-07T06:07:53.639Z,10.10
2019-02-07T06:11:01.543Z,10.67
2019-02-07T06:14:23.706Z,10.90
2019-02-07T06:17:44.998Z,10.93
2019-02-07T06:20:50.085Z,10.40
2019-02-07T06:24:04.098Z,9.93
2019-02-07T06:27:14.859Z,10.53
2019-02-07T06:30:20.977Z,11.03
2019-02-07T06:33:41.255Z,11.00
2019-02-07T06:36:49.199Z,11.40
2019-02-07T06:40:00.365Z,10.87
2019-02-07T06:43:21.595Z,11.47
2019-02-07T06:46:26.635Z,12.10
2019-02-07T06:49:49.786Z,11.50
2019-02-07T06:53:11.348Z,12.53
2019-02-07T06:56:16.517Z,12.77
2019-02-07T06:59:33.358Z,13.10
2019-02-07T07:02:38.461Z,12.90
2019-02-07T07:05:43.809Z,13.43
2019-02-07T07:09:05.280Z,13.20
2019-02-07T07:12:10.556Z,12.60
2019-02-07T07:15:21.492Z,12.80
2019-02-07T07:18:43.447Z,13.27
2019-02-07T07:22:07.299Z,12.47
2019-02-07T07:25:12.680Z,13.77
2019-02-07T07:28:34.537Z,14.47
2019-02-07T07:31:39.888Z,13.40
2019-02-07T07:35:01.731Z,13.47
2019-02-07T07:38:06.904Z,13.60
2019-02-07T07:41:24.661Z,14.37
2019-02-07T07:44:29.831Z,14.17
2019-02-07T07:47:51.275Z,14.03
2019-02-07T07:50:59.289Z,14.53
2019-02-07T07:54:20.631Z,13.80
2019-02-07T07:57:25.640Z,13.63
2019-02-07T08:00:45.975Z,13.40
2019-02-07T08:03:54.081Z,13.13
2019-02-07T08:07:04.560Z,12.60
2019-02-07T08:10:22.306Z,13.50
2019-02-07T08:13:39.595Z,11.37
2019-02-07T08:16:44.654Z,7.23
2019-02-07T08:19:49.704Z,6.00
2019-02-07T08:22:57.649Z,5.80
2019-02-07T08:26:11.610Z,5.43
2019-02-07T08:29:22.758Z,5.77
2019-02-07T08:32:42.835Z,5.57
2019-02-07T08:35:50.594Z,5.33
2019-02-07T08:39:01.610Z,5.37
2019-02-07T08:42:23.352Z,5.40
2019-02-07T08:45:29.030Z,5.00
2019-02-07T08:48:36.772Z,5.30
2019-02-07T08:51:50.735Z,5.50
2019-02-07T08:54:55.863Z,5.30
2019-02-07T08:58:10.010Z,4.63
2019-02-07T09:01:17.687Z,5.33
2019-02-07T09:04:39.118Z,4.93
2019-02-07T09:08:00.772Z,5.70
2019-02-07T09:11:22.921Z,5.20
2019-02-07T09:14:28.000Z,5.50
2019-02-07T09:17:36.085Z,5.70
2019-02-07T09:20:43.870Z,5.67
2019-02-07T09:24:05.227Z,5.67
2019-02-07T09:27:19.024Z,6.10
2019-02-07T09:30:40.859Z,6.47
2019-02-07T09:33:48.876Z,5.87
2019-02-07T09:36:57.006Z,6.63
2019-02-07T09:40:11.602Z,6.77
2019-02-07T09:43:31.596Z,6.93
2019-02-07T09:46:42.140Z,6.97
2019-02-07T09:49:59.433Z,6.50
2019-02-07T09:53:04.541Z,6.70
2019-02-07T09:56:10.888Z,6.63
2019-02-07T09:59:26.291Z,6.30
2019-02-07T10:02:55.718Z,6.17
2019-02-07T10:06:09.579Z,5.90
2019-02-07T10:09:18.076Z,5.80
2019-02-07T10:12:38.353Z,5.70
2019-02-07T10:15:43.551Z,6.00
2019-02-07T10:18:51.771Z,5.50
2019-02-07T10:21:59.761Z,5.30
2019-02-07T10:25:04.859Z,5.40
2019-02-07T10:28:12.786Z,5.40
2019-02-07T10:31:17.937Z,5.37
2019-02-07T10:34:39.109Z,5.30
2019-02-07T10:37:56.202Z,5.27
2019-02-07T10:41:01.490Z,18.33
2019-02-07T10:44:09.655Z,5.20
2019-02-07T10:47:23.526Z,5.00
2019-02-07T10:50:45.387Z,5.00
2019-02-07T10:53:50.437Z,5.40
2019-02-07T10:57:11.871Z,5.00
2019-02-07T11:00:25.528Z,4.63
2019-02-07T11:03:39.854Z,5.17
2019-02-07T11:06:50.622Z,4.50
2019-02-07T11:09:55.964Z,4.70
2019-02-07T11:13:17.570Z,4.50
2019-02-07T11:16:40.941Z,4.43
2019-02-07T11:20:01.089Z,4.53
2019-02-07T11:23:12.201Z,4.30
2019-02-07T11:26:33.554Z,4.57
2019-02-07T11:29:53.377Z,4.33
2019-02-07T11:32:58.793Z,4.53
2019-02-07T11:36:03.836Z,4.30
2019-02-07T11:39:16.733Z,4.00
2019-02-07T11:42:21.797Z,4.20
2019-02-07T11:45:27.202Z,4.17
2019-02-07T11:48:47.417Z,3.90
2019-02-07T11:51:55.122Z,3.93
2019-02-07T11:55:00.410Z,4.10
2019-02-07T11:58:22.496Z,3.60
2019-02-07T12:01:38.341Z,4.00
2019-02-07T12:04:59.859Z,3.23
2019-02-07T12:08:13.448Z,3.40
2019-02-07T12:11:22.144Z,3.23
2019-02-07T12:14:27.201Z,3.57
2019-02-07T12:17:48.497Z,3.63
2019-02-07T12:20:53.509Z,2.67
2019-02-07T12:24:04.530Z,4.40
2019-02-07T12:27:12.337Z,3.87
2019-02-07T12:30:31.703Z,3.70
2019-02-07T12:33:36.752Z,4.00
2019-02-07T12:36:57.038Z,3.40
2019-02-07T12:40:09.069Z,3.70
2019-02-07T12:43:16.648Z,3.30
2019-02-07T12:46:35.322Z,3.43
2019-02-07T12:49:46.658Z,3.27
2019-02-07T12:52:51.708Z,3.73
2019-02-07T12:56:03.407Z,3.50
2019-02-07T12:59:14.482Z,2.83
2019-02-07T13:02:22.199Z,3.03
2019-02-07T13:05:27.236Z,3.13
2019-02-07T13:08:41.501Z,3.07
2019-02-07T13:11:46.554Z,3.37
2019-02-07T13:15:00.692Z,3.27
2019-02-07T13:18:12.058Z,3.13
2019-02-07T13:21:23.444Z,3.33
2019-02-07T13:24:31.261Z,3.33
2019-02-07T13:27:39.780Z,3.53
2019-02-07T13:30:50.489Z,3.00
2019-02-07T13:33:58.244Z,3.07
2019-02-07T13:37:03.576Z,3.57
2019-02-07T13:40:11.998Z,3.50
2019-02-07T13:43:20.324Z,3.90
2019-02-07T13:46:41.313Z,4.00
2019-02-07T13:49:52.080Z,3.53
2019-02-07T13:53:04.627Z,3.50
2019-02-07T13:56:26.249Z,3.40
2019-02-07T13:59:47.810Z,3.10
2019-02-07T14:03:09.013Z,3.40
2019-02-07T14:06:31.874Z,3.13
2019-02-07T14:09:37.300Z,2.67
2019-02-07T14:12:42.344Z,3.63
2019-02-07T14:15:59.668Z,3.10
2019-02-07T14:19:20.942Z,3.47
2019-02-07T14:22:26.006Z,4.13
2019-02-07T14:25:47.842Z,3.40
2019-02-07T14:28:55.339Z,3.20
2019-02-07T14:32:09.134Z,3.10
2019-02-07T14:35:33.243Z,3.17
2019-02-07T14:38:43.772Z,3.30
2019-02-07T14:41:51.864Z,3.10
2019-02-07T14:44:56.918Z,3.23
2019-02-07T14:48:00.310Z,3.30
2019-02-07T14:51:03.784Z,3.23
2019-02-07T14:54:07.183Z,2.73
2019-02-07T14:57:10.647Z,3.00
2019-02-07T15:00:19.770Z,3.37
2019-02-07T15:03:23.238Z,2.70
2019-02-07T15:06:26.635Z,3.37
2019-02-07T15:09:30.106Z,2.33
2019-02-07T15:12:33.506Z,2.93
2019-02-07T15:15:36.888Z,2.90
2019-02-07T15:18:40.629Z,2.97
2019-02-07T15:21:44.113Z,2.87
2019-02-07T15:24:47.578Z,3.13
2019-02-07T15:27:50.999Z,2.37
2019-02-07T15:30:54.386Z,2.57
2019-02-07T15:33:58.070Z,2.90
2019-02-07T15:37:01.469Z,2.63
2019-02-07T15:40:10.581Z,2.80
2019-02-07T15:43:14.082Z,3.00
2019-02-07T15:46:17.501Z,2.73
2019-02-07T15:49:20.903Z,2.60
2019-02-07T15:52:24.389Z,2.93
2019-02-07T15:55:27.873Z,3.20
2019-02-07T15:58:47.640Z,2.80
2019-02-07T16:02:07.175Z,3.13
2019-02-07T16:05:12.684Z,2.70
2019-02-07T16:08:16.169Z,3.30
2019-02-07T16:11:19.927Z,3.17
2019-02-07T16:14:23.385Z,3.30
2019-02-07T16:17:26.790Z,3.13
2019-02-07T16:20:30.260Z,3.23
2019-02-07T16:23:33.731Z,2.83
2019-02-07T16:26:39.066Z,3.47
2019-02-07T16:29:42.704Z,3.57
2019-02-07T16:32:47.139Z,3.50
2019-02-07T16:35:50.741Z,3.60
2019-02-07T16:38:54.128Z,3.80
2019-02-07T16:42:05.795Z,3.90
2019-02-07T16:45:07.896Z,3.70
2019-02-07T16:48:11.456Z,3.60
2019-02-07T16:51:15.150Z,3.83
2019-02-07T16:54:18.933Z,3.50
2019-02-07T16:57:22.645Z,3.53
2019-02-07T17:00:36.614Z,3.53
2019-02-07T17:03:40.741Z,3.63
2019-02-07T17:06:44.132Z,3.57
2019-02-07T17:09:47.535Z,3.87
2019-02-07T17:12:52.050Z,3.40
2019-02-07T17:15:55.475Z,4.17
2019-02-07T17:18:58.912Z,3.20
2019-02-07T17:22:02.318Z,3.10
2019-02-07T17:25:45.616Z,2.97
2019-02-07T17:28:49.450Z,3.27
2019-02-07T17:31:53.078Z,2.53
2019-02-07T17:34:56.483Z,3.00
2019-02-07T17:38:00.422Z,2.73
2019-02-07T17:41:04.202Z,2.80
2019-02-07T17:44:27.529Z,2.50
2019-02-07T17:47:50.660Z,3.23
2019-02-07T17:50:54.317Z,2.93
2019-02-07T17:53:57.716Z,3.00
2019-02-07T17:57:01.096Z,3.20
2019-02-07T18:00:44.415Z,3.70
2019-02-07T18:03:47.801Z,3.30
2019-02-07T18:06:51.299Z,3.83
2019-02-07T18:09:55.029Z,2.97
2019-02-07T18:12:58.418Z,2.97
2019-02-07T18:16:21.418Z,3.00
2019-02-07T18:19:25.292Z,3.07
2019-02-07T18:22:28.774Z,3.23
2019-02-07T18:25:32.314Z,3.13
2019-02-07T18:28:35.710Z,2.90
2019-02-07T18:31:58.587Z,3.03
2019-02-07T18:35:21.514Z,3.33
2019-02-07T18:38:24.891Z,3.20
2019-02-07T18:41:47.734Z,3.33
2019-02-07T18:44:51.213Z,3.40
2019-02-07T18:47:54.669Z,3.37
2019-02-07T18:50:58.070Z,2.63
2019-02-07T18:54:01.732Z,3.47
2019-02-07T18:57:05.264Z,3.20
2019-02-07T19:00:48.622Z,3.90
2019-02-07T19:03:52.013Z,3.20
2019-02-07T19:06:55.419Z,3.10
2019-02-07T19:10:19.016Z,3.80
2019-02-07T19:13:22.743Z,3.60
2019-02-07T19:16:26.148Z,3.20
2019-02-07T19:19:48.865Z,3.53
2019-02-07T19:22:52.261Z,3.40
2019-02-07T19:25:55.898Z,3.27
2019-02-07T19:28:59.611Z,3.33
2019-02-07T19:32:09.865Z,2.90
2019-02-07T19:35:32.923Z,3.67
2019-02-07T19:38:36.397Z,2.60
2019-02-07T19:41:39.782Z,3.73
2019-02-07T19:45:02.771Z,2.90
2019-02-07T19:48:27.447Z,3.50
2019-02-07T19:51:31.126Z,2.70
2019-02-07T19:54:34.525Z,3.20
2019-02-07T19:57:37.908Z,2.90
2019-02-07T20:00:41.296Z,2.63
2019-02-07T20:03:44.759Z,3.20
2019-02-07T20:06:48.148Z,3.30
2019-02-07T20:09:51.803Z,3.00
2019-02-07T20:16:57.962Z,2.17
2019-02-07T20:20:01.370Z,2.20
2019-02-07T20:23:24.866Z,2.17
2019-02-07T20:26:47.720Z,1.60
2019-02-07T20:30:31.080Z,1.90
2019-02-07T20:33:34.485Z,2.00
2019-02-07T20:36:38.407Z,2.40
2019-02-07T20:39:41.806Z,2.20
2019-02-07T20:46:15.216Z,2.20
2019-02-07T20:49:18.605Z,1.67
2019-02-07T20:52:27.179Z,1.97
2019-02-07T20:55:27.191Z,1.83
2019-02-07T20:58:30.571Z,1.93
2019-02-07T21:01:33.963Z,1.63
2019-02-07T21:04:37.605Z,2.13
2019-02-07T21:07:41.013Z,2.13
2019-02-07T21:10:44.643Z,1.53
2019-02-07T21:13:48.056Z,1.97
2019-02-07T21:16:51.435Z,1.57
2019-02-07T21:19:54.831Z,2.10
2019-02-07T21:23:39.869Z,1.97
2019-02-07T21:26:43.261Z,2.60
2019-02-07T21:29:46.969Z,2.50
2019-02-07T21:36:19.624Z,1.90
2019-02-07T21:39:23.248Z,2.97
2019-02-07T21:42:26.701Z,2.80
2019-02-07T21:46:10.055Z,2.07
2019-02-07T21:49:13.453Z,2.40
2019-02-07T21:52:17.101Z,2.27
2019-02-07T21:56:02.126Z,2.50
2019-02-07T21:59:05.689Z,2.17
2019-02-07T22:02:09.073Z,1.80
2019-02-07T22:05:12.526Z,2.10
2019-02-07T22:08:16.166Z,2.30
2019-02-07T22:11:19.589Z,1.90
2019-02-07T22:14:22.961Z,2.00
2019-02-07T22:17:26.351Z,1.87
2019-02-07T22:20:50.535Z,2.40
2019-02-07T22:23:53.932Z,2.03
2019-02-07T22:26:57.322Z,2.07
2019-02-07T22:30:00.732Z,2.57
2019-02-07T22:33:44.030Z,2.50
2019-02-07T22:36:47.694Z,1.80
2019-02-07T22:39:51.334Z,2.33
2019-02-07T22:42:55.202Z,2.30
2019-02-07T22:45:59.075Z,2.03
2019-02-07T22:49:02.464Z,2.43
2019-02-07T22:52:05.984Z,2.07
2019-02-07T22:55:11.359Z,1.87
2019-02-07T22:58:14.772Z,2.23
2019-02-07T23:01:38.937Z,2.17
2019-02-07T23:04:42.413Z,2.30
2019-02-07T23:07:46.033Z,1.57
2019-02-07T23:10:49.674Z,1.60
2019-02-07T23:13:53.408Z,1.60
2019-02-07T23:16:56.885Z,1.63
2019-02-07T23:20:00.261Z,1.47
2019-02-07T23:23:43.549Z,1.50
2019-02-07T23:26:46.944Z,1.90
2019-02-07T23:29:50.332Z,1.63
2019-02-07T23:32:54.008Z,1.37
2019-02-07T23:35:57.408Z,2.33
2019-02-07T23:39:00.799Z,1.43
2019-02-07T23:45:34.070Z,2.60
2019-02-07T23:48:37.526Z,2.80
2019-02-07T23:51:41.101Z,2.47
2019-02-07T23:54:44.549Z,2.83
2019-02-07T23:57:48.020Z,2.40
